Погода Бон-Жезус-да-Лапана 2 недели

Баия, Бразилия

23 июня-06 июля
  • 23июня
    Сегодня
    +19°
    +33°
    Ясно и безоблачно
    ВремяПогодаТемператураВлажностьДавлениеВетер, м/сВероятность осадков
    00:00Ясно и безоблачно+22°C61 %724 мм1.8 м/с5 %
    03:00Ясно и безоблачно+20°C71 %723 мм1.6 м/с5 %
    06:00Ясно и безоблачно+19°C87 %724 мм2.6 м/с5 %
    09:00Ясно и безоблачно+25°C62 %726 мм1.0 м/с5 %
    12:00Практически безоблачно+31°C34 %725 мм1.9 м/с5 %
    15:00Ясно и безоблачно+33°C28 %723 мм2.2 м/с5 %
    18:00Пасмурно, сплошная облачность+29°C40 %722 мм0.9 м/с5 %
    21:00Практически безоблачно+27°C44 %724 мм2.8 м/с5 %
  • 24июня
    Понедельник
    +18°
    +33°
    Практически безоблачно
    ВремяПогодаТемператураВлажностьДавлениеВетер, м/сВероятность осадков
    00:00Ясно и безоблачно+24°C53 %724 мм2.1 м/с5 %
    03:00Ясно и безоблачно+22°C61 %723 мм2.1 м/с5 %
    06:00Ясно и безоблачно+19°C72 %723 мм1.9 м/с5 %
    09:00Ясно и безоблачно+25°C54 %726 мм1.0 м/с5 %
    12:00Практически безоблачно+31°C33 %725 мм1.1 м/с5 %
    15:00Практически безоблачно+33°C27 %723 мм2.3 м/с5 %
    18:00Ясно и безоблачно+28°C35 %723 мм0.5 м/с5 %
    21:00Ясно и безоблачно+24°C47 %724 мм2.7 м/с5 %
  • 25июня
    Вторник
    +20°
    +34°
    Облачно с прояснениями
    ВремяПогодаТемператураВлажностьДавлениеВетер, м/сВероятность осадков
    00:00Ясно и безоблачно+22°C61 %724 мм1.5 м/с5 %
    03:00Ясно и безоблачно+20°C71 %723 мм2.3 м/с5 %
    06:00Ясно и безоблачно+19°C81 %723 мм1.3 м/с5 %
    09:00Ясно и безоблачно+26°C52 %726 мм0.9 м/с5 %
    12:00Практически безоблачно+31°C33 %725 мм1.4 м/с5 %
    15:00Облачно с прояснениями+33°C29 %723 мм2.3 м/с5 %
    18:00Облачно с прояснениями+29°C40 %723 мм1.6 м/с5 %
    21:00Практически безоблачно+28°C41 %724 мм3.5 м/с5 %
  • 26июня
    Среда
    +19°
    +34°
    Небольшая облачность
    ВремяПогодаТемператураВлажностьДавлениеВетер, м/сВероятность осадков
    00:00Практически безоблачно+26°C50 %725 мм2.8 м/с5 %
    03:00Ясно и безоблачно+23°C62 %724 мм1.4 м/с5 %
    06:00Ясно и безоблачно+20°C76 %724 мм1.3 м/с5 %
    09:00Ясно и безоблачно+26°C49 %726 мм0.9 м/с5 %
    12:00Ясно и безоблачно+32°C30 %725 мм1.0 м/с5 %
    15:00Небольшая облачность+34°C26 %723 мм2.3 м/с5 %
    18:00Небольшая облачность+29°C36 %723 мм1.4 м/с5 %
    21:00Практически безоблачно+26°C54 %723 мм1.8 м/с5 %
  • 27июня
    Четверг
    +20°
    +35°
    Ясно и безоблачно
    ВремяПогодаТемператураВлажностьДавлениеВетер, м/сВероятность осадков
    00:00Ясно и безоблачно+24°C51 %723 мм2.2 м/с5 %
    03:00Ясно и безоблачно+22°C67 %722 мм2.2 м/с5 %
    06:00Ясно и безоблачно+20°C79 %723 мм1.5 м/с5 %
    09:00Ясно и безоблачно+26°C53 %725 мм0.9 м/с5 %
    12:00Ясно и безоблачно+33°C32 %724 мм1.0 м/с5 %
    15:00Ясно и безоблачно+34°C27 %722 мм2.3 м/с5 %
    18:00Ясно и безоблачно+30°C39 %721 мм1.3 м/с5 %
    21:00Практически безоблачно+26°C59 %722 мм1.8 м/с5 %
Мы используем cookies
Соглашаюсь